createdAt,value
2023-04-26T00:01:04.180Z,98832.50
2023-04-26T00:03:40.652Z,98833.72
2023-04-26T00:06:12.245Z,98829.41
2023-04-26T00:08:40.807Z,98829.09
2023-04-26T00:11:08.437Z,98829.91
2023-04-26T00:13:37.178Z,98832.38
2023-04-26T00:16:08.517Z,98829.66
2023-04-26T00:18:36.085Z,98835.84
2023-04-26T00:21:03.769Z,98822.97
2023-04-26T00:23:32.125Z,98834.00
2023-04-26T00:26:00.981Z,98835.72
2023-04-26T00:28:30.146Z,98834.22
2023-04-26T00:30:58.360Z,98827.63
2023-04-26T00:33:26.463Z,98832.84
2023-04-26T00:35:54.240Z,98831.88
2023-04-26T00:38:21.901Z,98828.69
2023-04-26T00:40:49.430Z,98832.56
2023-04-26T00:43:16.509Z,98837.13
2023-04-26T00:45:43.833Z,98826.63
2023-04-26T00:48:12.181Z,98828.78
2023-04-26T00:50:39.737Z,98826.00
2023-04-26T00:53:09.056Z,98832.44
2023-04-26T00:55:40.558Z,98833.22
2023-04-26T00:58:07.606Z,98838.59
2023-04-26T01:00:34.784Z,98837.09
2023-04-26T01:03:02.240Z,98837.19
2023-04-26T01:05:32.214Z,98846.56
2023-04-26T01:08:02.091Z,98843.16
2023-04-26T01:10:36.127Z,98836.78
2023-04-26T01:13:07.913Z,98849.47
2023-04-26T01:15:36.207Z,98845.06
2023-04-26T01:18:03.577Z,98850.53
2023-04-26T01:20:30.970Z,98846.09
2023-04-26T01:22:58.196Z,98852.78
2023-04-26T01:25:25.372Z,98853.38
2023-04-26T01:27:52.543Z,98840.69
2023-04-26T01:30:19.728Z,98835.66
2023-04-26T01:33:12.239Z,98834.94
2023-04-26T01:35:39.461Z,98839.13
2023-04-26T01:38:06.735Z,98840.78
2023-04-26T01:45:59.436Z,98842.38
2023-04-26T01:48:30.908Z,98836.44
2023-04-26T01:51:01.077Z,98841.91
2023-04-26T01:53:28.289Z,98837.72
2023-04-26T01:55:55.726Z,98844.69
2023-04-26T01:58:22.972Z,98842.88
2023-04-26T02:00:50.477Z,98840.16
2023-04-26T02:03:18.189Z,98850.38
2023-04-26T02:05:45.354Z,98849.63
2023-04-26T02:08:12.514Z,98841.50
2023-04-26T02:10:45.559Z,98839.75
2023-04-26T02:13:13.157Z,98858.75
2023-04-26T02:15:40.764Z,98848.84
2023-04-26T02:18:09.571Z,98850.72
2023-04-26T02:20:37.910Z,98856.06
2023-04-26T02:23:05.146Z,98847.09
2023-04-26T02:25:32.319Z,98841.88
2023-04-26T02:28:02.604Z,98842.63
2023-04-26T02:30:30.430Z,98849.06
2023-04-26T02:32:58.979Z,98844.31
2023-04-26T02:35:26.732Z,98845.16
2023-04-26T02:37:53.931Z,98848.56
2023-04-26T02:40:22.056Z,98844.13
2023-04-26T02:42:49.312Z,98849.09
2023-04-26T02:45:16.594Z,98855.66
2023-04-26T02:47:44.356Z,98853.94
2023-04-26T02:50:12.097Z,98854.75
2023-04-26T02:52:39.945Z,98853.03
2023-04-26T02:55:08.636Z,98855.38
2023-04-26T02:57:36.006Z,98858.91
2023-04-26T03:00:05.582Z,98855.50
2023-04-26T03:02:33.573Z,98864.94
2023-04-26T03:05:00.921Z,98865.22
2023-04-26T03:07:28.517Z,98862.31
2023-04-26T03:09:55.878Z,98858.31
2023-04-26T03:12:23.064Z,98862.59
2023-04-26T03:14:50.273Z,98862.19
2023-04-26T03:17:18.236Z,98855.63
2023-04-26T03:19:45.623Z,98857.66
2023-04-26T03:22:16.371Z,98857.47
2023-04-26T03:24:44.659Z,98855.56
2023-04-26T03:27:13.361Z,98856.22
2023-04-26T03:29:42.193Z,98857.38
2023-04-26T03:32:11.332Z,98863.19
2023-04-26T03:34:39.136Z,98863.78
2023-04-26T03:37:06.984Z,98861.22
2023-04-26T03:39:34.494Z,98864.97
2023-04-26T03:42:01.882Z,98864.34
2023-04-26T03:44:31.082Z,98868.81
2023-04-26T03:46:59.036Z,98869.16
2023-04-26T03:49:27.010Z,98860.22
2023-04-26T03:51:56.169Z,98859.81
2023-04-26T03:54:23.607Z,98856.28
2023-04-26T03:56:51.217Z,98845.88
2023-04-26T03:59:20.537Z,98848.78
2023-04-26T04:01:48.834Z,98849.66
2023-04-26T04:04:17.408Z,98854.28
2023-04-26T04:06:46.371Z,98855.28
2023-04-26T04:09:14.271Z,98849.94
2023-04-26T04:11:41.608Z,98857.22
2023-04-26T04:14:08.790Z,98858.31
2023-04-26T04:16:36.106Z,98859.25
2023-04-26T04:19:03.972Z,98860.22
2023-04-26T04:21:32.060Z,98862.94
2023-04-26T04:24:00.851Z,98854.16
2023-04-26T04:26:28.255Z,98860.38
2023-04-26T04:28:55.800Z,98856.78
2023-04-26T04:31:23.349Z,98859.44
2023-04-26T04:33:50.930Z,98863.69
2023-04-26T04:36:19.168Z,98861.19
2023-04-26T04:38:49.780Z,98859.44
2023-04-26T04:41:22.378Z,98860.66
2023-04-26T04:43:50.974Z,98875.69
2023-04-26T04:46:18.145Z,98872.84
2023-04-26T04:48:45.830Z,98873.81
2023-04-26T04:51:13.403Z,98866.53
2023-04-26T04:53:41.033Z,98876.31
2023-04-26T04:56:08.802Z,98872.59
2023-04-26T04:58:36.242Z,98875.94
2023-04-26T05:01:03.414Z,98882.06
2023-04-26T05:03:41.879Z,98887.94
2023-04-26T05:06:09.920Z,98885.00
2023-04-26T05:08:37.237Z,98888.56
2023-04-26T05:11:06.302Z,98890.91
2023-04-26T05:13:33.690Z,98897.66
2023-04-26T05:16:01.055Z,98888.44
2023-04-26T05:18:28.638Z,98900.72
2023-04-26T05:20:56.246Z,98907.63
2023-04-26T05:23:24.312Z,98907.34
2023-04-26T05:25:52.632Z,98907.66
2023-04-26T05:28:51.269Z,98906.34
2023-04-26T05:31:32.947Z,98907.16
2023-04-26T05:34:17.366Z,98911.84
2023-04-26T05:36:50.280Z,98915.91
2023-04-26T05:39:23.802Z,98918.06
2023-04-26T05:41:52.200Z,98915.41
2023-04-26T05:44:19.675Z,98922.13
2023-04-26T05:46:47.601Z,98922.34
2023-04-26T05:49:16.068Z,98924.31
2023-04-26T05:51:43.747Z,98923.88
2023-04-26T05:54:12.058Z,98922.38
2023-04-26T05:56:40.264Z,98924.28
2023-04-26T05:59:12.090Z,98931.31
2023-04-26T06:01:39.682Z,98934.75
2023-04-26T06:04:08.087Z,98928.88
2023-04-26T06:06:46.497Z,98928.34
2023-04-26T06:09:14.648Z,98928.53
2023-04-26T06:11:42.279Z,98927.91
2023-04-26T06:14:19.821Z,98924.19
2023-04-26T06:16:57.996Z,98928.31
2023-04-26T06:19:25.642Z,98926.38
2023-04-26T06:21:55.313Z,98923.97
2023-04-26T06:24:25.247Z,98931.69
2023-04-26T06:26:52.795Z,98931.72
2023-04-26T06:29:21.984Z,98935.72
2023-04-26T06:31:49.463Z,98937.16
2023-04-26T06:34:20.405Z,98932.16
2023-04-26T06:36:48.404Z,98937.16
2023-04-26T06:39:17.183Z,98940.06
2023-04-26T06:41:44.902Z,98936.66
2023-04-26T06:44:12.803Z,98941.00
2023-04-26T06:46:43.473Z,98936.41
2023-04-26T06:49:11.672Z,98936.41
2023-04-26T06:51:38.910Z,98940.66
2023-04-26T06:54:06.358Z,98941.81
2023-04-26T06:56:33.583Z,98941.09
2023-04-26T06:59:04.662Z,98937.03
2023-04-26T07:01:34.136Z,98943.28
2023-04-26T07:04:10.976Z,98933.34
2023-04-26T07:06:39.394Z,98927.84
2023-04-26T07:09:08.036Z,98933.47
2023-04-26T07:11:35.740Z,98925.81
2023-04-26T07:14:03.052Z,98921.94
2023-04-26T07:16:30.556Z,98919.47
2023-04-26T07:18:58.527Z,98924.09
2023-04-26T07:21:29.418Z,98914.38
2023-04-26T07:23:58.242Z,98909.16
2023-04-26T07:26:27.704Z,98910.19
2023-04-26T07:28:55.508Z,98911.94
2023-04-26T07:31:23.162Z,98908.63
2023-04-26T07:33:50.635Z,98912.09
2023-04-26T07:36:18.395Z,98913.44
2023-04-26T07:38:46.009Z,98914.25
2023-04-26T07:41:13.317Z,98912.41
2023-04-26T07:43:40.532Z,98908.41
2023-04-26T07:46:08.272Z,98908.84
2023-04-26T07:48:35.805Z,98903.84
2023-04-26T07:51:28.665Z,98910.59
2023-04-26T07:53:56.197Z,98906.44
2023-04-26T07:56:24.652Z,98904.72
2023-04-26T07:58:51.959Z,98901.31
2023-04-26T08:01:19.118Z,98908.34
2023-04-26T08:03:48.921Z,98915.94
2023-04-26T08:06:22.240Z,98906.63
2023-04-26T08:08:51.129Z,98907.59
2023-04-26T08:11:18.745Z,98913.69
2023-04-26T08:13:46.555Z,98902.41
2023-04-26T08:16:14.105Z,98907.56
2023-04-26T08:18:41.845Z,98902.56
2023-04-26T08:21:09.981Z,98911.56
2023-04-26T08:23:37.690Z,98910.09
2023-04-26T08:26:08.075Z,98905.75
2023-04-26T08:28:36.293Z,98909.31
2023-04-26T08:31:04.654Z,98905.97
2023-04-26T08:33:34.550Z,98905.69
2023-04-26T08:36:02.349Z,98906.03
2023-04-26T08:38:30.867Z,98897.81
2023-04-26T08:41:03.567Z,98910.00
2023-04-26T08:43:31.156Z,98910.81
2023-04-26T08:46:01.861Z,98908.44
2023-04-26T08:48:34.339Z,98915.06
2023-04-26T08:51:27.595Z,98909.84
2023-04-26T08:53:58.178Z,98909.31
2023-04-26T08:56:27.586Z,98911.91
2023-04-26T08:58:55.549Z,98909.22
2023-04-26T09:01:24.561Z,98906.94
2023-04-26T09:03:53.056Z,98905.66
2023-04-26T09:06:21.692Z,98906.44
2023-04-26T09:08:51.004Z,98907.81
2023-04-26T09:11:18.683Z,98908.78
2023-04-26T09:13:46.364Z,98902.69
2023-04-26T09:16:14.271Z,98902.47
2023-04-26T09:18:57.358Z,98904.66
2023-04-26T09:21:30.737Z,98899.06
2023-04-26T09:24:06.736Z,98900.47
2023-04-26T09:26:37.302Z,98907.38
2023-04-26T09:29:15.977Z,98902.13
2023-04-26T09:31:49.511Z,98896.75
2023-04-26T09:34:18.325Z,98891.81
2023-04-26T09:36:57.037Z,98888.84
2023-04-26T09:39:40.266Z,98888.59
2023-04-26T09:42:09.463Z,98882.63
2023-04-26T09:44:37.610Z,98881.84
2023-04-26T09:47:10.095Z,98881.44
2023-04-26T09:49:51.652Z,98874.94
2023-04-26T09:52:20.370Z,98878.03
2023-04-26T09:54:53.117Z,98876.34
2023-04-26T09:57:23.521Z,98877.13
2023-04-26T09:59:55.324Z,98876.53
2023-04-26T10:02:26.833Z,98869.06
2023-04-26T10:04:57.285Z,98870.78
2023-04-26T10:07:26.227Z,98880.56
2023-04-26T10:09:57.237Z,98877.44
2023-04-26T10:12:24.913Z,98875.56
2023-04-26T10:14:52.740Z,98874.19
2023-04-26T10:17:21.165Z,98872.72
2023-04-26T10:19:57.721Z,98870.97
2023-04-26T10:22:33.703Z,98867.13
2023-04-26T10:25:01.493Z,98868.38
2023-04-26T10:27:46.837Z,98866.94
2023-04-26T10:30:17.184Z,98858.44
2023-04-26T10:33:08.134Z,98863.69
2023-04-26T10:35:38.141Z,98863.56
2023-04-26T10:38:10.386Z,98860.94
2023-04-26T10:40:41.649Z,98852.28
2023-04-26T10:43:13.709Z,98852.97
2023-04-26T10:45:49.229Z,98844.53
2023-04-26T10:48:31.530Z,98850.00
2023-04-26T10:51:02.677Z,98857.47
2023-04-26T10:53:46.284Z,98855.84
2023-04-26T10:56:25.980Z,98845.31
2023-04-26T11:01:46.612Z,98840.44
2023-04-26T11:04:16.847Z,98843.69
2023-04-26T11:06:57.781Z,98851.41
2023-04-26T11:09:41.339Z,98843.28
2023-04-26T11:12:29.564Z,98836.19
2023-04-26T11:15:01.199Z,98839.59
2023-04-26T11:17:28.918Z,98831.81
2023-04-26T11:19:56.653Z,98835.00
2023-04-26T11:22:24.898Z,98827.59
2023-04-26T11:24:52.942Z,98830.25
2023-04-26T11:27:20.612Z,98825.19
2023-04-26T11:29:48.212Z,98817.28
2023-04-26T11:32:16.381Z,98820.69
2023-04-26T11:34:44.388Z,98816.41
2023-04-26T11:37:12.773Z,98803.44
2023-04-26T11:39:40.634Z,98798.19
2023-04-26T11:42:14.773Z,98792.41
2023-04-26T11:44:42.489Z,98787.53
2023-04-26T11:47:10.869Z,98777.94
2023-04-26T11:49:39.509Z,98779.34
2023-04-26T11:52:08.847Z,98780.31
2023-04-26T11:54:37.864Z,98771.91
2023-04-26T11:57:18.120Z,98781.91
2023-04-26T11:59:46.415Z,98777.03
2023-04-26T12:02:14.430Z,98776.94
2023-04-26T12:04:44.258Z,98764.38
2023-04-26T12:07:12.205Z,98772.88
2023-04-26T12:09:42.792Z,98765.94
2023-04-26T12:12:14.536Z,98769.91
2023-04-26T12:14:42.429Z,98765.00
2023-04-26T12:19:44.071Z,98763.09
2023-04-26T12:22:13.481Z,98767.81
2023-04-26T12:24:43.203Z,98774.19
2023-04-26T12:27:21.930Z,98765.41
2023-04-26T12:29:49.555Z,98768.41
2023-04-26T12:32:17.257Z,98770.00
2023-04-26T12:34:44.893Z,98765.03
2023-04-26T12:37:12.681Z,98760.94
2023-04-26T12:39:44.436Z,98755.28
2023-04-26T12:42:12.310Z,98756.59
2023-04-26T12:44:40.069Z,98747.16
2023-04-26T12:47:08.303Z,98759.66
2023-04-26T12:49:36.048Z,98743.50
2023-04-26T12:52:06.620Z,98738.41
2023-04-26T12:54:34.249Z,98741.25
2023-04-26T12:57:06.557Z,98750.84
2023-04-26T12:59:34.633Z,98750.09
2023-04-26T13:02:03.947Z,98744.19
2023-04-26T13:04:32.320Z,98742.66
2023-04-26T13:07:00.740Z,98732.75
2023-04-26T13:09:28.503Z,98735.75
2023-04-26T13:11:56.619Z,98746.75
2023-04-26T13:14:24.401Z,98738.84
2023-04-26T13:16:52.578Z,98742.53
2023-04-26T13:19:20.364Z,98734.44
2023-04-26T13:21:48.600Z,98734.94
2023-04-26T13:24:16.579Z,98730.50
2023-04-26T13:26:44.279Z,98730.19
2023-04-26T13:29:12.104Z,98731.31
2023-04-26T13:31:40.179Z,98730.63
2023-04-26T13:34:16.812Z,98722.22
2023-04-26T13:36:44.752Z,98726.19
2023-04-26T13:39:12.507Z,98715.69
2023-04-26T13:41:43.219Z,98727.34
2023-04-26T13:44:11.089Z,98719.72
2023-04-26T13:46:39.104Z,98728.75
2023-04-26T13:49:12.473Z,98729.97
2023-04-26T13:51:40.528Z,98719.97
2023-04-26T13:54:10.655Z,98722.06
2023-04-26T13:56:38.612Z,98714.06
2023-04-26T13:59:07.636Z,98716.53
2023-04-26T14:01:36.313Z,98711.56
2023-04-26T14:04:04.672Z,98714.22
2023-04-26T14:06:34.322Z,98720.00
2023-04-26T14:09:02.274Z,98716.72
2023-04-26T14:11:30.940Z,98709.44
2023-04-26T14:13:59.159Z,98712.16
2023-04-26T14:16:27.129Z,98702.84
2023-04-26T14:18:55.056Z,98708.91
2023-04-26T14:21:22.819Z,98706.69
2023-04-26T14:23:50.574Z,98706.75
2023-04-26T14:26:18.510Z,98699.88
2023-04-26T14:28:46.732Z,98699.72
2023-04-26T14:31:14.608Z,98696.31
2023-04-26T14:33:42.353Z,98696.59
2023-04-26T14:36:10.065Z,98698.13
2023-04-26T14:38:37.748Z,98692.75
2023-04-26T14:41:05.561Z,98691.47
2023-04-26T14:43:33.701Z,98699.47
2023-04-26T14:46:03.435Z,98695.41
2023-04-26T14:48:31.542Z,98696.03
2023-04-26T14:51:00.194Z,98699.38
2023-04-26T14:53:28.502Z,98693.19
2023-04-26T14:56:00.288Z,98703.56
2023-04-26T14:58:28.002Z,98697.72
2023-04-26T15:00:56.004Z,98697.38
2023-04-26T15:03:23.809Z,98692.19
2023-04-26T15:05:51.669Z,98687.91
2023-04-26T15:08:19.650Z,98689.69
2023-04-26T15:10:47.526Z,98694.38
2023-04-26T15:13:15.293Z,98693.41
2023-04-26T15:15:43.035Z,98688.28
2023-04-26T15:18:10.765Z,98690.47
2023-04-26T15:20:41.661Z,98690.28
2023-04-26T15:23:09.315Z,98690.34
2023-04-26T15:25:42.298Z,98683.22
2023-04-26T15:28:09.878Z,98676.50
2023-04-26T15:30:37.436Z,98678.50
2023-04-26T15:33:06.656Z,98676.09
2023-04-26T15:35:35.885Z,98671.59
2023-04-26T15:38:03.436Z,98675.25
2023-04-26T15:40:32.751Z,98670.72
2023-04-26T15:43:00.779Z,98675.84
2023-04-26T15:45:28.396Z,98682.81
2023-04-26T15:47:57.221Z,98676.78
2023-04-26T15:50:25.040Z,98669.53
2023-04-26T15:52:52.759Z,98678.06
2023-04-26T15:55:20.917Z,98668.38
2023-04-26T15:57:48.521Z,98667.78
2023-04-26T16:00:17.061Z,98670.09
2023-04-26T16:02:49.066Z,98667.97
2023-04-26T16:05:17.380Z,98667.16
2023-04-26T16:07:45.057Z,98668.97
2023-04-26T16:10:12.854Z,98663.72
2023-04-26T16:12:41.752Z,98661.56
2023-04-26T16:15:10.423Z,98663.94
2023-04-26T16:17:38.846Z,98660.59
2023-04-26T16:20:08.234Z,98666.63
2023-04-26T16:22:36.601Z,98668.06
2023-04-26T16:25:06.733Z,98658.28
2023-04-26T16:27:37.023Z,98660.88
2023-04-26T16:30:05.625Z,98661.81
2023-04-26T16:32:34.007Z,98663.91
2023-04-26T16:35:01.691Z,98659.13
2023-04-26T16:37:29.313Z,98667.84
2023-04-26T16:39:57.201Z,98672.28
2023-04-26T16:42:29.877Z,98663.88
2023-04-26T16:44:57.996Z,98664.88
2023-04-26T16:47:25.579Z,98658.78
2023-04-26T16:49:53.130Z,98666.63
2023-04-26T16:52:20.891Z,98670.31
2023-04-26T16:54:48.501Z,98658.09
2023-04-26T16:57:16.524Z,98650.97
2023-04-26T16:59:44.180Z,98656.72
2023-04-26T17:02:14.045Z,98663.59
2023-04-26T17:04:42.461Z,98666.78
2023-04-26T17:07:11.034Z,98672.84
2023-04-26T17:09:39.037Z,98666.88
2023-04-26T17:12:07.528Z,98670.28
2023-04-26T17:14:35.114Z,98678.03
2023-04-26T17:17:02.700Z,98672.78
2023-04-26T17:19:30.238Z,98672.44
2023-04-26T17:21:58.158Z,98672.44
2023-04-26T17:24:26.216Z,98679.22
2023-04-26T17:26:53.936Z,98684.41
2023-04-26T17:29:21.790Z,98690.56
2023-04-26T17:31:49.418Z,98682.91
2023-04-26T17:34:17.955Z,98686.47
2023-04-26T17:36:47.434Z,98689.28
2023-04-26T17:39:17.438Z,98687.28
2023-04-26T17:41:45.175Z,98695.22
2023-04-26T17:44:12.821Z,98695.22
2023-04-26T17:46:40.745Z,98698.69
2023-04-26T17:49:08.530Z,98702.81
2023-04-26T17:51:36.186Z,98703.13
2023-04-26T17:54:04.118Z,98705.97
2023-04-26T17:56:31.687Z,98709.53
2023-04-26T17:59:00.055Z,98710.59
2023-04-26T18:01:28.964Z,98716.69
2023-04-26T18:03:56.697Z,98716.63
2023-04-26T18:06:24.512Z,98721.16
2023-04-26T18:08:52.535Z,98711.09
2023-04-26T18:11:21.308Z,98723.38
2023-04-26T18:13:49.095Z,98717.78
2023-04-26T18:16:22.716Z,98717.75
2023-04-26T18:18:50.408Z,98719.72
2023-04-26T18:21:17.979Z,98726.34
2023-04-26T18:23:46.970Z,98733.41
2023-04-26T18:26:14.603Z,98734.81
2023-04-26T18:28:44.804Z,98736.41
2023-04-26T18:31:12.476Z,98736.09
2023-04-26T18:33:40.242Z,98741.63
2023-04-26T18:36:08.110Z,98737.09
2023-04-26T18:38:35.771Z,98734.97
2023-04-26T18:41:03.515Z,98737.81
2023-04-26T18:43:31.155Z,98741.75
2023-04-26T18:45:59.060Z,98744.19
2023-04-26T18:48:26.841Z,98756.00
2023-04-26T18:50:56.396Z,98747.63
2023-04-26T18:53:24.133Z,98755.63
2023-04-26T18:55:56.219Z,98756.94
2023-04-26T18:58:23.977Z,98756.72
2023-04-26T19:00:55.957Z,98763.22
2023-04-26T19:03:24.027Z,98758.09
2023-04-26T19:05:51.977Z,98764.56
2023-04-26T19:08:20.099Z,98768.66
2023-04-26T19:10:47.798Z,98771.84
2023-04-26T19:13:15.503Z,98779.41
2023-04-26T19:15:43.280Z,98781.53
2023-04-26T19:18:10.944Z,98780.47
2023-04-26T19:20:38.709Z,98792.59
2023-04-26T19:23:06.460Z,98787.44
2023-04-26T19:25:35.120Z,98790.06
2023-04-26T19:28:02.961Z,98784.53
2023-04-26T19:30:30.871Z,98789.66
2023-04-26T19:32:58.470Z,98798.78
2023-04-26T19:35:26.347Z,98804.59
2023-04-26T19:37:59.850Z,98807.19
2023-04-26T19:40:32.723Z,98808.53
2023-04-26T19:43:02.659Z,98802.81
2023-04-26T19:45:30.417Z,98810.94
2023-04-26T19:47:58.339Z,98814.22
2023-04-26T19:50:26.319Z,98811.13
2023-04-26T19:52:53.990Z,98809.94
2023-04-26T19:55:21.932Z,98816.34
2023-04-26T19:57:51.995Z,98813.78
2023-04-26T20:00:21.282Z,98813.53
2023-04-26T20:02:49.833Z,98815.84
2023-04-26T20:05:17.839Z,98815.56
2023-04-26T20:07:46.372Z,98823.50
2023-04-26T20:10:14.713Z,98820.88
2023-04-26T20:12:44.872Z,98819.81
2023-04-26T20:15:15.179Z,98817.88
2023-04-26T20:17:44.045Z,98828.25
2023-04-26T20:20:12.779Z,98820.28
2023-04-26T20:22:41.761Z,98827.38
2023-04-26T20:25:10.050Z,98822.81
2023-04-26T20:27:38.426Z,98827.94
2023-04-26T20:30:07.483Z,98821.94
2023-04-26T20:32:35.566Z,98820.38
2023-04-26T20:35:04.669Z,98822.09
2023-04-26T20:37:32.730Z,98818.91
2023-04-26T20:40:00.614Z,98824.56
2023-04-26T20:42:28.617Z,98827.69
2023-04-26T20:45:02.021Z,98826.50
2023-04-26T20:47:32.047Z,98828.78
2023-04-26T20:49:59.738Z,98821.53
2023-04-26T20:52:27.395Z,98814.09
2023-04-26T20:54:57.124Z,98820.44
2023-04-26T20:57:25.031Z,98823.94
2023-04-26T20:59:53.053Z,98818.94
2023-04-26T21:02:21.136Z,98823.47
2023-04-26T21:04:49.138Z,98821.47
2023-04-26T21:07:23.233Z,98823.63
2023-04-26T21:09:51.109Z,98828.47
2023-04-26T21:12:18.693Z,98825.16
2023-04-26T21:14:47.744Z,98821.50
2023-04-26T21:17:16.047Z,98820.53
2023-04-26T21:19:44.519Z,98826.72
2023-04-26T21:22:12.258Z,98823.59
2023-04-26T21:24:39.814Z,98826.13
2023-04-26T21:27:07.413Z,98821.00
2023-04-26T21:29:34.929Z,98833.22
2023-04-26T21:32:02.645Z,98831.28
2023-04-26T21:34:30.254Z,98828.59
2023-04-26T21:36:57.750Z,98830.94
2023-04-26T21:39:25.423Z,98830.06
2023-04-26T21:41:53.016Z,98830.94
2023-04-26T21:44:20.649Z,98836.25
2023-04-26T21:46:48.357Z,98836.53
2023-04-26T21:49:16.393Z,98832.69
2023-04-26T21:51:43.998Z,98828.13
2023-04-26T21:54:11.694Z,98832.88
2023-04-26T21:56:39.792Z,98831.09
2023-04-26T21:59:08.886Z,98831.28
2023-04-26T22:01:48.099Z,98833.19
2023-04-26T22:04:16.075Z,98837.34
2023-04-26T22:06:43.713Z,98838.47
2023-04-26T22:09:11.710Z,98837.25
2023-04-26T22:11:39.658Z,98842.75
2023-04-26T22:14:08.689Z,98847.81
2023-04-26T22:16:38.900Z,98845.19
2023-04-26T22:19:06.534Z,98840.19
2023-04-26T22:21:59.186Z,98838.81
2023-04-26T22:24:27.095Z,98844.00
2023-04-26T22:26:54.691Z,98843.09
2023-04-26T22:29:22.300Z,98842.88
2023-04-26T22:31:49.954Z,98842.25
2023-04-26T22:34:20.116Z,98846.59
2023-04-26T22:36:48.246Z,98847.34
2023-04-26T22:39:19.592Z,98849.75
2023-04-26T22:41:47.167Z,98846.06
2023-04-26T22:44:15.112Z,98852.25
2023-04-26T22:46:46.202Z,98839.47
2023-04-26T22:49:14.618Z,98846.56
2023-04-26T22:51:45.943Z,98850.13
2023-04-26T22:54:18.513Z,98843.88
2023-04-26T22:56:46.240Z,98849.72
2023-04-26T22:59:13.946Z,98849.72
2023-04-26T23:01:41.893Z,98857.38
2023-04-26T23:04:11.766Z,98852.75
2023-04-26T23:06:39.508Z,98857.56
2023-04-26T23:09:07.128Z,98854.63
2023-04-26T23:11:34.683Z,98855.56
2023-04-26T23:14:02.573Z,98864.53
2023-04-26T23:16:30.235Z,98863.16
2023-04-26T23:19:00.816Z,98866.47
2023-04-26T23:21:29.361Z,98862.25
2023-04-26T23:23:57.435Z,98863.75
2023-04-26T23:26:25.214Z,98864.34
2023-04-26T23:28:52.787Z,98857.19
2023-04-26T23:31:20.626Z,98863.56
2023-04-26T23:33:48.377Z,98865.06
2023-04-26T23:36:16.016Z,98853.47
2023-04-26T23:38:43.630Z,98854.41
2023-04-26T23:41:11.169Z,98856.59
2023-04-26T23:43:38.760Z,98854.56
2023-04-26T23:46:06.824Z,98866.81
2023-04-26T23:48:34.562Z,98855.38
2023-04-26T23:51:02.210Z,98861.09
2023-04-26T23:53:29.914Z,98859.22
2023-04-26T23:55:57.527Z,98863.81
2023-04-26T23:58:25.076Z,98860.13
